Graniteville, California
Current Conditions -  °F | °C
As of 4:52 PM on Sunday 23 Nov 2014 (Local Time) from KBLU Reporting Station
Overcast Overcast  
Wind Chill: 45°   Ceiling: 9500
Heat Index: 45°   Visibility: 10mi
Dew Point:   Wind: 0mph
Humidity: 23%   Direction: NA
Pressure: 30.3"   Gusts: NA
Location:  39.3517°N, 120.851°W
Report Text: KBLU 240052Z AUTO 00000KT 10SM OVC095 07/M13 A3030 RMK AO2 SLP247 T00721128
Loading
Personal Weather Stations






























Interactive Weather Map New forecast layout! Learn more

10-Day Weather Forecast

Advertisements
Track Severe Weather on mobile